Time;durP1;ratioP1;P1;durP2;ratioP2;P2;SDS_P1;SDS_P2;PMS_P1;PMS_P2;Temp;Humidity;BMP_temperature;BMP_pressure;BME280_temperature;BME280_humidity;BME280_pressure;Samples;Min_cycle;Max_cycle;Signal;HPM_P1;HPM_P2
2022/09/17 00:00:49;;;;;;;9.75;6.05;;;;;;;;;;5052684;28;20032;-63
2022/09/17 00:03:15;;;;;;;11.38;5.63;;;;;;;;;;5051408;28;20112;-62
2022/09/17 00:05:41;;;;;;;11.05;6.57;;;;;;;;;;5052498;28;20025;-62
2022/09/17 00:08:11;;;;;;;16.15;6.97;;;;;;;;;;5052595;28;20111;-62
2022/09/17 00:10:40;;;;;;;13.23;6.40;;;;;;;;;;5052516;28;20472;-61
2022/09/17 00:13:07;;;;;;;11.63;6.30;;;;;;;;;;5052141;28;20033;-62
2022/09/17 00:15:39;;;;;;;11.63;6.03;;;;;;;;;;5052171;28;20490;-62
2022/09/17 00:18:05;;;;;;;11.75;6.00;;;;;;;;;;5052591;28;20033;-62
2022/09/17 00:20:31;;;;;;;13.52;6.70;;;;;;;;;;5052387;28;20025;-62
2022/09/17 00:22:57;;;;;;;16.08;7.00;;;;;;;;;;5052407;28;20040;-63
2022/09/17 00:25:23;;;;;;;11.43;6.57;;;;;;;;;;5051072;28;20104;-62
2022/09/17 00:27:48;;;;;;;11.82;7.35;;;;;;;;;;5051304;28;20490;-62
2022/09/17 00:30:14;;;;;;;15.52;6.80;;;;;;;;;;5051104;28;20028;-62
2022/09/17 00:32:40;;;;;;;9.90;6.35;;;;;;;;;;5050697;28;20133;-62
2022/09/17 00:35:06;;;;;;;9.70;6.40;;;;;;;;;;5051897;28;20446;-62
2022/09/17 00:37:32;;;;;;;11.63;6.65;;;;;;;;;;5052266;28;20480;-62
2022/09/17 00:39:58;;;;;;;12.77;7.07;;;;;;;;;;5052253;28;20029;-61
2022/09/17 00:42:24;;;;;;;11.00;6.20;;;;;;;;;;5052234;28;20029;-61
2022/09/17 00:44:53;;;;;;;11.63;6.60;;;;;;;;;;5052392;28;20017;-62
2022/09/17 00:47:38;;;;;;;11.65;6.22;;;;;;;;;;5052352;28;20043;-62
2022/09/17 00:50:11;;;;;;;8.50;5.75;;;;;;;;;;5052261;28;20045;-62
2022/09/17 00:52:48;;;;;;;8.50;5.88;;;;;;;;;;5051966;28;20143;-63
2022/09/17 00:55:37;;;;;;;11.88;6.13;;;;;;;;;;5052023;28;20396;-62
2022/09/17 00:58:07;;;;;;;11.80;6.47;;;;;;;;;;5051950;28;20488;-62
2022/09/17 01:00:33;;;;;;;12.48;6.20;;;;;;;;;;5051918;28;20472;-62
2022/09/17 01:02:59;;;;;;;8.70;5.53;;;;;;;;;;5055008;28;20047;-61
2022/09/17 01:06:01;;;;;;;11.98;6.05;;;;;;;;;;5056189;28;20428;-62
2022/09/17 01:08:47;;;;;;;11.65;6.00;;;;;;;;;;5055987;28;20043;-62
2022/09/17 01:11:28;;;;;;;12.02;5.75;;;;;;;;;;5055018;28;20029;-63
2022/09/17 01:14:09;;;;;;;9.18;5.82;;;;;;;;;;5055904;28;20111;-62
2022/09/17 01:16:56;;;;;;;13.13;6.35;;;;;;;;;;5055960;28;20122;-62
2022/09/17 01:19:31;;;;;;;10.60;7.05;;;;;;;;;;5055903;28;20430;-62
2022/09/17 01:22:08;;;;;;;11.63;6.40;;;;;;;;;;5055599;28;20040;-62
2022/09/17 01:24:47;;;;;;;8.60;7.15;;;;;;;;;;5055760;28;20048;-62
2022/09/17 01:27:25;;;;;;;10.50;6.10;;;;;;;;;;5055595;28;20511;-62
2022/09/17 01:30:13;;;;;;;12.98;7.50;;;;;;;;;;5055465;28;20033;-64
2022/09/17 01:32:48;;;;;;;8.90;6.63;;;;;;;;;;5054291;28;20045;-62
2022/09/17 01:35:20;;;;;;;8.93;6.97;;;;;;;;;;5055813;28;20082;-62
2022/09/17 01:38:12;;;;;;;9.20;6.70;;;;;;;;;;5055548;28;20131;-62
2022/09/17 01:40:58;;;;;;;14.80;7.40;;;;;;;;;;5055262;28;20036;-62
2022/09/17 01:43:53;;;;;;;12.48;7.90;;;;;;;;;;5065407;28;20036;-62
2022/09/17 01:46:29;;;;;;;12.23;7.10;;;;;;;;;;5062215;28;20075;-62
2022/09/17 01:48:59;;;;;;;10.02;6.57;;;;;;;;;;5074650;28;20390;-62
2022/09/17 01:51:28;;;;;;;10.32;6.00;;;;;;;;;;5074839;28;20040;-62
2022/09/17 01:54:05;;;;;;;12.00;6.18;;;;;;;;;;5074657;28;20028;-62
2022/09/17 01:56:57;;;;;;;9.02;6.15;;;;;;;;;;5075050;28;20041;-62
2022/09/17 01:59:30;;;;;;;8.02;5.75;;;;;;;;;;5074948;28;20028;-62
2022/09/17 02:02:12;;;;;;;8.60;6.13;;;;;;;;;;5074686;28;20086;-62
2022/09/17 02:04:47;;;;;;;10.30;6.00;;;;;;;;;;5074666;28;20044;-62
2022/09/17 02:07:19;;;;;;;10.32;6.30;;;;;;;;;;5074692;28;20024;-62
2022/09/17 02:10:09;;;;;;;9.35;6.15;;;;;;;;;;5074982;28;20131;-62
2022/09/17 02:12:42;;;;;;;9.18;5.15;;;;;;;;;;5074195;28;20082;-62
2022/09/17 02:15:16;;;;;;;10.43;5.72;;;;;;;;;;5073473;28;20400;-62
2022/09/17 02:17:48;;;;;;;11.02;5.75;;;;;;;;;;5074953;28;20078;-62
2022/09/17 02:20:16;;;;;;;7.57;4.88;;;;;;;;;;5073761;28;20120;-62
2022/09/17 02:22:48;;;;;;;9.32;5.07;;;;;;;;;;5074824;28;20099;-62
2022/09/17 02:25:46;;;;;;;9.00;5.32;;;;;;;;;;5073290;28;20135;-62
2022/09/17 02:28:18;;;;;;;11.23;5.30;;;;;;;;;;5074682;28;20450;-62
2022/09/17 02:30:44;;;;;;;11.95;5.57;;;;;;;;;;5060766;28;20037;-62
2022/09/17 02:33:13;;;;;;;15.82;6.70;;;;;;;;;;5072638;28;20055;-62
2022/09/17 02:35:39;;;;;;;12.15;6.47;;;;;;;;;;5074167;28;20041;-63
2022/09/17 02:38:05;;;;;;;14.05;6.38;;;;;;;;;;5074211;28;20387;-63
2022/09/17 02:40:36;;;;;;;7.93;5.90;;;;;;;;;;5072846;28;20475;-62
2022/09/17 02:43:20;;;;;;;7.50;5.38;;;;;;;;;;5065798;28;20029;-63
2022/09/17 02:46:13;;;;;;;10.40;5.30;;;;;;;;;;5052843;28;20115;-63
2022/09/17 02:49:04;;;;;;;9.30;5.07;;;;;;;;;;5053975;28;20896;-63
2022/09/17 02:51:54;;;;;;;13.20;6.22;;;;;;;;;;5053937;28;20044;-63
2022/09/17 02:54:45;;;;;;;7.13;5.72;;;;;;;;;;5054027;28;20040;-62
2022/09/17 02:57:11;;;;;;;16.20;6.13;;;;;;;;;;5053861;28;20086;-62
2022/09/17 02:59:45;;;;;;;7.43;5.30;;;;;;;;;;5053712;28;20459;-62
2022/09/17 03:02:26;;;;;;;15.82;6.20;;;;;;;;;;5053714;28;20033;-62
2022/09/17 03:04:54;;;;;;;9.73;5.80;;;;;;;;;;5053625;28;20476;-61
2022/09/17 03:07:21;;;;;;;17.65;6.53;;;;;;;;;;5053625;28;20177;-63
2022/09/17 03:09:48;;;;;;;12.95;5.82;;;;;;;;;;5053720;28;20036;-63
2022/09/17 03:12:14;;;;;;;9.98;5.65;;;;;;;;;;5053680;28;20048;-63
2022/09/17 03:14:40;;;;;;;8.85;5.30;;;;;;;;;;5053477;28;20044;-62
2022/09/17 03:17:06;;;;;;;9.85;5.55;;;;;;;;;;5052166;28;20021;-62
2022/09/17 03:19:32;;;;;;;17.48;6.53;;;;;;;;;;5053016;28;20387;-61
2022/09/17 03:21:58;;;;;;;11.73;6.10;;;;;;;;;;5052092;28;20024;-61
2022/09/17 03:24:24;;;;;;;9.75;5.43;;;;;;;;;;5053520;28;20122;-64
2022/09/17 03:26:49;;;;;;;16.95;5.95;;;;;;;;;;5053623;28;20021;-61
2022/09/17 03:29:16;;;;;;;11.82;5.13;;;;;;;;;;5053377;28;20553;-61
2022/09/17 03:31:41;;;;;;;9.80;4.90;;;;;;;;;;5052301;28;20377;-62
2022/09/17 03:34:07;;;;;;;9.13;5.85;;;;;;;;;;5053140;28;20033;-61
2022/09/17 03:36:34;;;;;;;12.02;6.05;;;;;;;;;;5053209;28;20036;-62
2022/09/17 03:39:00;;;;;;;12.90;5.97;;;;;;;;;;5053429;28;20021;-62
2022/09/17 03:41:26;;;;;;;8.90;5.07;;;;;;;;;;5052973;28;20440;-62
2022/09/17 03:43:52;;;;;;;12.13;5.05;;;;;;;;;;5053204;28;20115;-62
2022/09/17 03:46:19;;;;;;;12.68;4.80;;;;;;;;;;5053090;28;20054;-62
2022/09/17 03:48:45;;;;;;;8.30;5.07;;;;;;;;;;5052901;28;20067;-62
2022/09/17 03:51:11;;;;;;;25.25;7.35;;;;;;;;;;5052659;28;20052;-62
2022/09/17 03:53:37;;;;;;;21.23;6.78;;;;;;;;;;5052903;28;20060;-62
2022/09/17 03:56:05;;;;;;;14.40;6.47;;;;;;;;;;5052920;28;20052;-63
2022/09/17 03:58:32;;;;;;;13.32;7.10;;;;;;;;;;5052707;28;20104;-62
2022/09/17 04:00:58;;;;;;;14.32;6.30;;;;;;;;;;5052728;28;20029;-62
2022/09/17 04:03:25;;;;;;;12.02;6.13;;;;;;;;;;5052697;28;20098;-62
2022/09/17 04:05:50;;;;;;;16.48;6.30;;;;;;;;;;5052775;28;20036;-63
2022/09/17 04:08:16;;;;;;;15.88;6.20;;;;;;;;;;5052831;28;20025;-63
2022/09/17 04:10:43;;;;;;;20.58;6.57;;;;;;;;;;5052697;28;20032;-62
2022/09/17 04:13:10;;;;;;;15.57;6.30;;;;;;;;;;5052715;28;20068;-62
2022/09/17 04:15:36;;;;;;;17.17;6.88;;;;;;;;;;5051161;28;20486;-62
2022/09/17 04:18:02;;;;;;;24.15;9.15;;;;;;;;;;5068063;28;20093;-62
2022/09/17 04:20:28;;;;;;;27.95;9.02;;;;;;;;;;5071353;28;20463;-62
2022/09/17 04:22:54;;;;;;;31.88;8.70;;;;;;;;;;5071758;28;20025;-62
2022/09/17 04:25:20;;;;;;;14.05;7.18;;;;;;;;;;5073019;28;20485;-62
2022/09/17 04:27:46;;;;;;;15.25;6.63;;;;;;;;;;5073113;28;20040;-62
2022/09/17 04:30:13;;;;;;;15.05;6.72;;;;;;;;;;5073130;28;20032;-62
2022/09/17 04:32:40;;;;;;;11.27;5.85;;;;;;;;;;5070210;28;20075;-62
2022/09/17 04:35:06;;;;;;;11.98;6.15;;;;;;;;;;5060525;28;20036;-62
2022/09/17 04:37:32;;;;;;;15.05;7.22;;;;;;;;;;5071746;28;20078;-63
2022/09/17 04:39:58;;;;;;;20.58;6.43;;;;;;;;;;5073234;28;20021;-62
2022/09/17 04:42:24;;;;;;;11.65;5.70;;;;;;;;;;5073170;28;20039;-62
2022/09/17 04:44:50;;;;;;;18.52;7.30;;;;;;;;;;5067365;28;20020;-63
2022/09/17 04:47:16;;;;;;;13.30;6.10;;;;;;;;;;5061865;28;20033;-63
2022/09/17 04:49:42;;;;;;;9.93;6.22;;;;;;;;;;5057934;28;20455;-63
2022/09/17 04:52:08;;;;;;;15.35;6.13;;;;;;;;;;5061938;28;20040;-62
2022/09/17 04:54:33;;;;;;;11.60;6.10;;;;;;;;;;5068264;28;20052;-62
2022/09/17 04:56:59;;;;;;;16.60;5.78;;;;;;;;;;5052943;28;20071;-62
2022/09/17 04:59:25;;;;;;;14.63;6.15;;;;;;;;;;5052797;28;20507;-62
2022/09/17 05:01:51;;;;;;;13.63;7.25;;;;;;;;;;5054322;28;20029;-63
2022/09/17 05:04:17;;;;;;;21.52;7.47;;;;;;;;;;5061160;28;20041;-63
2022/09/17 05:06:43;;;;;;;14.95;6.90;;;;;;;;;;5072112;28;20025;-62
2022/09/17 05:09:08;;;;;;;19.25;7.05;;;;;;;;;;5072322;28;20480;-63
2022/09/17 05:11:35;;;;;;;23.30;7.43;;;;;;;;;;5072393;28;20037;-63
2022/09/17 05:14:00;;;;;;;18.27;6.03;;;;;;;;;;5070192;28;20032;-61
2022/09/17 05:16:26;;;;;;;12.18;5.90;;;;;;;;;;5071727;28;20032;-61
2022/09/17 05:18:52;;;;;;;14.48;5.85;;;;;;;;;;5070706;28;20021;-62
2022/09/17 05:21:19;;;;;;;12.35;6.10;;;;;;;;;;5072175;28;20104;-63
2022/09/17 05:23:46;;;;;;;9.80;6.18;;;;;;;;;;5068500;28;20056;-65
2022/09/17 05:26:13;;;;;;;14.50;6.53;;;;;;;;;;5061105;28;20055;-67
2022/09/17 05:28:38;;;;;;;10.63;6.25;;;;;;;;;;5067140;28;20021;-62
2022/09/17 05:31:04;;;;;;;12.20;6.13;;;;;;;;;;5062300;28;20506;-62
2022/09/17 05:33:30;;;;;;;15.25;7.03;;;;;;;;;;5059106;28;20040;-62
2022/09/17 05:35:56;;;;;;;19.63;6.30;;;;;;;;;;5061883;28;20078;-62
2022/09/17 05:38:22;;;;;;;17.20;6.72;;;;;;;;;;5060025;28;20119;-66
2022/09/17 05:40:48;;;;;;;16.55;6.78;;;;;;;;;;5059320;28;20038;-62
2022/09/17 05:43:14;;;;;;;16.70;6.80;;;;;;;;;;5059859;28;20100;-70
2022/09/17 05:45:40;;;;;;;10.25;6.25;;;;;;;;;;5061652;28;20083;-65
2022/09/17 05:48:10;;;;;;;15.27;6.70;;;;;;;;;;5061293;28;20468;-64
2022/09/17 05:50:37;;;;;;;16.88;7.22;;;;;;;;;;5064941;28;20029;-63
2022/09/17 05:53:09;;;;;;;12.63;6.43;;;;;;;;;;5062851;28;20025;-66
2022/09/17 05:55:35;;;;;;;12.45;6.75;;;;;;;;;;5063410;28;20043;-63
2022/09/17 05:58:09;;;;;;;16.08;5.93;;;;;;;;;;5065740;28;20029;-64
2022/09/17 06:00:35;;;;;;;10.82;5.78;;;;;;;;;;5063371;28;20041;-62
2022/09/17 06:03:00;;;;;;;10.13;5.50;;;;;;;;;;5060338;28;20025;-62
2022/09/17 06:05:26;;;;;;;9.07;5.43;;;;;;;;;;5063784;28;20149;-62
2022/09/17 06:07:52;;;;;;;14.60;5.88;;;;;;;;;;5075468;28;20020;-62
2022/09/17 06:10:18;;;;;;;10.45;5.78;;;;;;;;;;5075256;28;20060;-62
2022/09/17 06:12:44;;;;;;;7.95;4.95;;;;;;;;;;5073846;28;20091;-62
2022/09/17 06:15:13;;;;;;;11.20;4.45;;;;;;;;;;5074952;28;20544;-62
2022/09/17 06:17:39;;;;;;;11.98;4.63;;;;;;;;;;5067531;28;20422;-61
2022/09/17 06:20:06;;;;;;;15.45;5.03;;;;;;;;;;5061553;28;20041;-65
2022/09/17 06:22:32;;;;;;;11.20;4.97;;;;;;;;;;5074991;28;20471;-63
2022/09/17 06:25:02;;;;;;;9.18;4.65;;;;;;;;;;5073726;28;20040;-62
2022/09/17 06:27:32;;;;;;;11.38;4.10;;;;;;;;;;5069919;28;20025;-62
2022/09/17 06:29:57;;;;;;;12.23;4.07;;;;;;;;;;5061278;28;20017;-62
2022/09/17 06:32:24;;;;;;;12.82;3.60;;;;;;;;;;5073370;28;20391;-61
2022/09/17 06:34:49;;;;;;;8.88;3.60;;;;;;;;;;5074620;28;20479;-62
2022/09/17 06:37:15;;;;;;;7.03;3.40;;;;;;;;;;5074919;28;20048;-61
2022/09/17 06:39:41;;;;;;;8.80;3.42;;;;;;;;;;5074706;28;20027;-62
2022/09/17 06:42:07;;;;;;;10.07;3.17;;;;;;;;;;5074694;28;21154;-62
2022/09/17 06:44:33;;;;;;;10.30;3.53;;;;;;;;;;5072866;28;20048;-62
2022/09/17 06:46:59;;;;;;;10.77;4.13;;;;;;;;;;5074552;28;20071;-62
2022/09/17 06:49:25;;;;;;;11.68;3.60;;;;;;;;;;5074557;28;20586;-62
2022/09/17 06:51:51;;;;;;;14.15;3.30;;;;;;;;;;5074631;28;20383;-62
2022/09/17 06:54:20;;;;;;;9.38;3.25;;;;;;;;;;5074093;28;20468;-73
2022/09/17 06:56:46;;;;;;;11.10;3.22;;;;;;;;;;5073719;28;20506;-76
2022/09/17 06:59:12;;;;;;;4.68;2.65;;;;;;;;;;5073820;28;20016;-67
2022/09/17 07:01:38;;;;;;;8.45;3.50;;;;;;;;;;5074420;28;20037;-68
2022/09/17 07:04:04;;;;;;;6.70;2.80;;;;;;;;;;5074468;28;20070;-69
2022/09/17 07:06:30;;;;;;;7.28;3.03;;;;;;;;;;5074066;28;20047;-68
2022/09/17 07:08:57;;;;;;;8.95;3.28;;;;;;;;;;5068341;28;20025;-67
2022/09/17 07:11:23;;;;;;;8.23;2.95;;;;;;;;;;5053818;28;20029;-67
2022/09/17 07:13:49;;;;;;;8.93;2.78;;;;;;;;;;5064180;28;20447;-68
2022/09/17 07:16:15;;;;;;;7.78;2.25;;;;;;;;;;5074054;28;20111;-67
2022/09/17 07:18:40;;;;;;;10.90;3.70;;;;;;;;;;5073640;28;20383;-66
2022/09/17 07:21:06;;;;;;;9.07;2.65;;;;;;;;;;5072861;28;20442;-66
2022/09/17 07:23:35;;;;;;;11.95;2.70;;;;;;;;;;5073699;28;20401;-67
2022/09/17 07:26:04;;;;;;;12.57;2.63;;;;;;;;;;5073618;28;20429;-68
2022/09/17 07:28:30;;;;;;;7.60;2.75;;;;;;;;;;5073827;28;20029;-66
2022/09/17 07:30:56;;;;;;;9.30;3.10;;;;;;;;;;5073659;28;20589;-66
2022/09/17 07:33:24;;;;;;;9.00;2.30;;;;;;;;;;5072972;28;20205;-67
2022/09/17 07:35:58;;;;;;;12.05;2.70;;;;;;;;;;5061490;28;20024;-67
2022/09/17 07:38:25;;;;;;;10.63;2.47;;;;;;;;;;5064639;28;20025;-66
2022/09/17 07:41:00;;;;;;;11.55;2.58;;;;;;;;;;5063328;28;20123;-67
2022/09/17 07:43:27;;;;;;;9.25;2.85;;;;;;;;;;5065210;28;20021;-68
2022/09/17 07:45:56;;;;;;;9.38;2.85;;;;;;;;;;5073514;28;20032;-67
2022/09/17 07:48:22;;;;;;;9.65;2.95;;;;;;;;;;5072863;28;20041;-67
2022/09/17 07:50:49;;;;;;;8.68;2.80;;;;;;;;;;5073379;28;20066;-66
2022/09/17 07:53:15;;;;;;;10.48;2.72;;;;;;;;;;5061138;28;20115;-66
2022/09/17 07:55:41;;;;;;;9.27;2.72;;;;;;;;;;5062668;28;20033;-68
2022/09/17 07:58:07;;;;;;;10.30;2.88;;;;;;;;;;5064268;28;20029;-66
2022/09/17 08:00:42;;;;;;;10.45;2.72;;;;;;;;;;5072627;28;20023;-67
2022/09/17 08:03:08;;;;;;;12.40;3.42;;;;;;;;;;5073011;28;20411;-68
2022/09/17 08:05:34;;;;;;;10.20;4.13;;;;;;;;;;5072776;28;20029;-67
2022/09/17 08:08:00;;;;;;;13.60;4.10;;;;;;;;;;5072863;28;20044;-65
2022/09/17 08:10:26;;;;;;;13.27;4.28;;;;;;;;;;5073186;28;20065;-66
2022/09/17 08:12:56;;;;;;;12.45;4.25;;;;;;;;;;5071530;28;20069;-67
2022/09/17 08:15:23;;;;;;;10.73;4.20;;;;;;;;;;5072987;28;20037;-67
2022/09/17 08:17:50;;;;;;;14.30;4.00;;;;;;;;;;5072840;28;20021;-68
2022/09/17 08:20:17;;;;;;;23.33;4.20;;;;;;;;;;5062974;28;20052;-67
2022/09/17 08:22:43;;;;;;;19.30;3.60;;;;;;;;;;5061335;28;20062;-66
2022/09/17 08:25:09;;;;;;;17.08;4.00;;;;;;;;;;5060665;28;20037;-66
2022/09/17 08:27:39;;;;;;;11.25;3.33;;;;;;;;;;5068088;28;20051;-70
2022/09/17 08:30:06;;;;;;;17.30;4.20;;;;;;;;;;5062363;28;20025;-66
2022/09/17 08:32:32;;;;;;;10.65;3.75;;;;;;;;;;5062625;28;20353;-67
2022/09/17 08:34:58;;;;;;;11.80;3.53;;;;;;;;;;5059523;28;20052;-70
2022/09/17 08:37:28;;;;;;;15.48;3.38;;;;;;;;;;5070958;28;20037;-66
2022/09/17 08:39:54;;;;;;;10.07;2.92;;;;;;;;;;5070361;28;20376;-70
2022/09/17 08:42:36;;;;;;;12.23;2.83;;;;;;;;;;5070463;28;20036;-68
2022/09/17 08:45:08;;;;;;;12.63;2.70;;;;;;;;;;5071536;28;20036;-68
2022/09/17 08:47:38;;;;;;;11.23;2.70;;;;;;;;;;5071532;28;20044;-68
2022/09/17 08:50:11;;;;;;;11.27;2.50;;;;;;;;;;5070087;28;20067;-67
2022/09/17 08:52:59;;;;;;;8.98;2.10;;;;;;;;;;5070084;28;20119;-73
2022/09/17 08:55:43;;;;;;;12.07;2.30;;;;;;;;;;5066390;28;20037;-67
2022/09/17 08:58:34;;;;;;;9.85;2.40;;;;;;;;;;5050881;28;20036;-66
2022/09/17 09:01:18;;;;;;;18.25;2.50;;;;;;;;;;5070352;28;20056;-68
2022/09/17 09:04:28;;;;;;;12.00;2.88;;;;;;;;;;5070276;28;20033;-68
2022/09/17 09:07:01;;;;;;;14.73;3.17;;;;;;;;;;5069498;28;20127;-72
2022/09/17 09:09:34;;;;;;;13.75;2.40;;;;;;;;;;5068358;28;20025;-67
2022/09/17 09:12:05;;;;;;;7.80;2.60;;;;;;;;;;5070688;28;20035;-68
2022/09/17 09:14:54;;;;;;;11.05;2.50;;;;;;;;;;5070666;28;20040;-69
2022/09/17 09:17:24;;;;;;;11.85;2.45;;;;;;;;;;5054601;28;20045;-67
2022/09/17 09:19:52;;;;;;;10.23;2.90;;;;;;;;;;5070817;28;20067;-70
2022/09/17 09:22:32;;;;;;;9.52;2.67;;;;;;;;;;5057640;28;20032;-68
2022/09/17 09:25:16;;;;;;;9.65;2.67;;;;;;;;;;5054644;28;20513;-67
2022/09/17 09:28:05;;;;;;;11.10;2.80;;;;;;;;;;5055140;28;20103;-67
2022/09/17 09:30:49;;;;;;;13.38;2.72;;;;;;;;;;5054878;28;20033;-68
2022/09/17 09:33:20;;;;;;;9.75;3.05;;;;;;;;;;5054245;28;20041;-67
2022/09/17 09:35:46;;;;;;;15.05;2.70;;;;;;;;;;5067907;28;20036;-67
2022/09/17 09:38:35;;;;;;;12.38;2.58;;;;;;;;;;5074598;28;20025;-67
2022/09/17 09:41:14;;;;;;;14.40;3.30;;;;;;;;;;5072703;28;20042;-68
2022/09/17 09:44:06;;;;;;;14.07;3.05;;;;;;;;;;5075472;28;20404;-67
2022/09/17 09:46:44;;;;;;;10.27;2.80;;;;;;;;;;5074588;28;20083;-67
2022/09/17 09:49:31;;;;;;;9.05;2.25;;;;;;;;;;5074185;28;20028;-67
2022/09/17 09:52:38;;;;;;;7.13;1.98;;;;;;;;;;5073850;28;20036;-67
2022/09/17 09:55:28;;;;;;;10.98;2.55;;;;;;;;;;5068031;28;20036;-69
2022/09/17 09:58:15;;;;;;;16.48;2.95;;;;;;;;;;5065986;28;20036;-66
2022/09/17 10:00:42;;;;;;;7.68;2.15;;;;;;;;;;5083857;28;20039;-68
2022/09/17 10:03:19;;;;;;;12.13;3.20;;;;;;;;;;5057887;28;20029;-68
2022/09/17 10:06:12;;;;;;;10.88;2.67;;;;;;;;;;5055224;28;20434;-67
2022/09/17 10:08:40;;;;;;;12.02;2.65;;;;;;;;;;5074582;28;20052;-67
2022/09/17 10:11:11;;;;;;;11.30;3.05;;;;;;;;;;5074561;28;20025;-67
2022/09/17 10:13:38;;;;;;;11.97;2.73;;;;;;;;;;5074973;28;20033;-67
2022/09/17 10:16:15;;;;;;;15.23;2.72;;;;;;;;;;5058048;28;20041;-66
2022/09/17 10:18:41;;;;;;;9.85;3.30;;;;;;;;;;5055769;28;20372;-67
2022/09/17 10:21:31;;;;;;;16.42;3.83;;;;;;;;;;5074839;28;20028;-68
2022/09/17 10:23:58;;;;;;;9.93;3.03;;;;;;;;;;5074893;28;20094;-67
2022/09/17 10:26:34;;;;;;;13.77;3.35;;;;;;;;;;5074635;28;20542;-70
2022/09/17 10:29:15;;;;;;;13.70;2.60;;;;;;;;;;5074650;28;20040;-68
2022/09/17 10:31:52;;;;;;;14.77;3.10;;;;;;;;;;5074058;28;20383;-66
2022/09/17 10:34:31;;;;;;;13.43;2.30;;;;;;;;;;5073635;28;20029;-67
2022/09/17 10:36:57;;;;;;;12.48;3.65;;;;;;;;;;5063834;28;20036;-68
2022/09/17 10:39:26;;;;;;;12.60;3.90;;;;;;;;;;5054373;28;20457;-68
2022/09/17 10:42:11;;;;;;;17.13;2.70;;;;;;;;;;5054406;28;20055;-68
2022/09/17 10:44:49;;;;;;;11.25;3.00;;;;;;;;;;5061157;28;20438;-68
2022/09/17 10:47:34;;;;;;;15.38;2.70;;;;;;;;;;5074338;28;20051;-66
2022/09/17 10:50:04;;;;;;;12.10;3.15;;;;;;;;;;5072548;28;20389;-66
2022/09/17 10:52:33;;;;;;;10.77;2.70;;;;;;;;;;5074271;28;20033;-65
2022/09/17 10:55:17;;;;;;;10.85;2.50;;;;;;;;;;5074124;28;20041;-70
2022/09/17 10:58:21;;;;;;;14.15;2.45;;;;;;;;;;5073689;28;20028;-66
2022/09/17 11:01:05;;;;;;;18.10;3.00;;;;;;;;;;5068459;28;20395;-66
2022/09/17 11:03:44;;;;;;;15.45;3.08;;;;;;;;;;5073572;28;20028;-65
2022/09/17 11:06:23;;;;;;;9.20;2.45;;;;;;;;;;5073092;28;20534;-66
2022/09/17 11:09:16;;;;;;;13.23;2.78;;;;;;;;;;5073469;28;20056;-65
2022/09/17 11:12:12;;;;;;;15.45;3.05;;;;;;;;;;5054166;28;20041;-66
2022/09/17 11:14:48;;;;;;;17.38;2.60;;;;;;;;;;5052293;28;20098;-67
2022/09/17 11:17:49;;;;;;;16.10;2.97;;;;;;;;;;5053006;28;20103;-65
2022/09/17 11:20:43;;;;;;;10.73;2.30;;;;;;;;;;5038563;28;20053;-68
2022/09/17 11:23:18;;;;;;;11.00;2.72;;;;;;;;;;5063618;28;20036;-66
2022/09/17 11:26:07;;;;;;;12.57;2.40;;;;;;;;;;5055423;28;20026;-68
2022/09/17 11:28:44;;;;;;;10.20;2.33;;;;;;;;;;5067595;28;20036;-67
2022/09/17 11:31:32;;;;;;;13.18;3.25;;;;;;;;;;5058045;28;20037;-68
2022/09/17 11:34:16;;;;;;;10.75;2.40;;;;;;;;;;5070612;28;20051;-68
2022/09/17 11:36:49;;;;;;;13.00;2.60;;;;;;;;;;5060320;28;20036;-66
2022/09/17 11:39:30;;;;;;;19.27;2.38;;;;;;;;;;5052452;28;20119;-66
2022/09/17 11:42:00;;;;;;;9.38;2.40;;;;;;;;;;5053860;28;20178;-65
2022/09/17 11:44:31;;;;;;;14.75;2.65;;;;;;;;;;5053746;28;20027;-66
2022/09/17 11:47:16;;;;;;;13.07;2.42;;;;;;;;;;5053773;28;20030;-66
2022/09/17 11:49:49;;;;;;;12.73;2.53;;;;;;;;;;5065128;28;20029;-67
2022/09/17 11:52:22;;;;;;;;;;;;;;;;;;5073289;28;20051;-66
2022/09/17 11:55:01;;;;;;;14.77;2.63;;;;;;;;;;5072996;28;19916;-66
2022/09/17 11:57:34;;;;;;;17.80;3.00;;;;;;;;;;5073207;28;20036;-67
2022/09/17 12:00:06;;;;;;;10.45;2.63;;;;;;;;;;5073164;28;20037;-67
2022/09/17 12:02:56;;;;;;;14.70;3.05;;;;;;;;;;5072248;28;20094;-67
2022/09/17 12:05:43;;;;;;;13.63;2.75;;;;;;;;;;5073332;28;20035;-67
2022/09/17 12:08:38;;;;;;;11.48;3.08;;;;;;;;;;5073045;28;20032;-67
2022/09/17 12:11:26;;;;;;;10.00;3.45;;;;;;;;;;5073027;28;20044;-69
2022/09/17 12:13:56;;;;;;;14.93;3.30;;;;;;;;;;5072497;28;20036;-70
2022/09/17 12:16:30;;;;;;;14.35;2.92;;;;;;;;;;5072963;28;20475;-72
2022/09/17 12:19:02;;;;;;;12.32;2.67;;;;;;;;;;5071788;28;20078;-71
2022/09/17 12:22:14;;;;;;;11.30;3.08;;;;;;;;;;5072664;28;20086;-67
2022/09/17 12:24:41;;;;;;;13.05;2.78;;;;;;;;;;5050435;28;20045;-67
2022/09/17 12:27:12;;;;;;;11.27;2.80;;;;;;;;;;5050434;28;20025;-67
2022/09/17 12:29:45;;;;;;;10.13;2.83;;;;;;;;;;5063168;28;20511;-67
2022/09/17 12:32:29;;;;;;;14.90;2.88;;;;;;;;;;5054399;28;20071;-67
2022/09/17 12:35:22;;;;;;;14.93;3.00;;;;;;;;;;5072629;28;20531;-67
2022/09/17 12:38:06;;;;;;;18.10;2.83;;;;;;;;;;5072452;28;20060;-66
2022/09/17 12:40:42;;;;;;;14.85;2.75;;;;;;;;;;5071925;28;20025;-67
2022/09/17 12:43:35;;;;;;;15.25;3.10;;;;;;;;;;5072365;28;20029;-66
2022/09/17 12:46:26;;;;;;;17.85;3.00;;;;;;;;;;5072876;28;20037;-70
2022/09/17 12:49:29;;;;;;;11.93;3.00;;;;;;;;;;5072690;28;20040;-71
2022/09/17 12:51:59;;;;;;;12.65;2.67;;;;;;;;;;5071752;28;20047;-68
2022/09/17 12:54:46;;;;;;;15.02;2.63;;;;;;;;;;5072505;28;20112;-69
2022/09/17 12:57:35;;;;;;;12.02;3.20;;;;;;;;;;5072111;28;20082;-68
2022/09/17 13:00:04;;;;;;;10.52;2.80;;;;;;;;;;5072086;28;20140;-68
2022/09/17 13:02:40;;;;;;;11.93;2.97;;;;;;;;;;5071844;28;20082;-69
2022/09/17 13:05:34;;;;;;;13.80;2.92;;;;;;;;;;5070777;28;20068;-69
2022/09/17 13:08:43;;;;;;;9.57;2.97;;;;;;;;;;5072503;28;20123;-70
2022/09/17 13:11:34;;;;;;;13.27;2.97;;;;;;;;;;5071694;28;20058;-69
2022/09/17 13:14:37;;;;;;;19.27;3.38;;;;;;;;;;5070877;28;20431;-70
2022/09/17 13:17:10;;;;;;;18.23;3.25;;;;;;;;;;5072677;28;20032;-68
2022/09/17 13:19:40;;;;;;;;;;;;;;;;;;5073079;28;20516;-68
2022/09/17 13:22:15;;;;;;;15.77;3.05;;;;;;;;;;5072790;28;19917;-68
2022/09/17 13:24:42;;;;;;;12.23;3.72;;;;;;;;;;5072727;28;20490;-68
2022/09/17 13:27:20;;;;;;;12.38;2.58;;;;;;;;;;5072685;28;20061;-69
2022/09/17 13:29:46;;;;;;;7.78;2.25;;;;;;;;;;5072832;28;20032;-67
2022/09/17 13:32:33;;;;;;;8.52;2.50;;;;;;;;;;5072564;28;20525;-66
2022/09/17 13:35:08;;;;;;;10.10;2.40;;;;;;;;;;5071732;28;20483;-66
2022/09/17 13:37:41;;;;;;;14.52;3.33;;;;;;;;;;5072294;28;20032;-67
2022/09/17 13:40:27;;;;;;;11.38;3.10;;;;;;;;;;5071500;28;20044;-66
2022/09/17 13:42:55;;;;;;;10.48;2.78;;;;;;;;;;5071016;28;20036;-68
2022/09/17 13:45:23;;;;;;;13.45;2.80;;;;;;;;;;5072468;28;20095;-68
2022/09/17 13:47:57;;;;;;;9.48;2.50;;;;;;;;;;5072050;28;20040;-65
2022/09/17 13:50:40;;;;;;;12.57;2.97;;;;;;;;;;5070868;28;20035;-66
2022/09/17 13:53:15;;;;;;;13.13;2.72;;;;;;;;;;5071264;28;20036;-66
2022/09/17 13:55:52;;;;;;;11.32;3.20;;;;;;;;;;5071978;28;20032;-65
2022/09/17 13:58:17;;;;;;;14.38;3.00;;;;;;;;;;5072107;28;20029;-66
2022/09/17 14:00:55;;;;;;;11.52;3.08;;;;;;;;;;5071980;28;20096;-66
2022/09/17 14:03:30;;;;;;;19.20;3.22;;;;;;;;;;5072036;28;20040;-65
2022/09/17 14:06:06;;;;;;;8.82;2.67;;;;;;;;;;5070219;28;20067;-65
2022/09/17 14:08:36;;;;;;;8.55;2.33;;;;;;;;;;5071684;28;20033;-67
2022/09/17 14:11:22;;;;;;;11.52;2.60;;;;;;;;;;5074539;28;20493;-67
2022/09/17 14:13:55;;;;;;;13.38;3.15;;;;;;;;;;5075187;28;20035;-68
2022/09/17 14:16:28;;;;;;;12.65;2.50;;;;;;;;;;5075283;28;20036;-68
2022/09/17 14:18:58;;;;;;;;;;;;;;;;;;5075325;28;20029;-68
2022/09/17 14:21:30;;;;;;;10.77;2.45;;;;;;;;;;5074510;28;19912;-68
2022/09/17 14:24:00;;;;;;;12.10;2.63;;;;;;;;;;5074571;28;20028;-68
2022/09/17 14:26:46;;;;;;;18.13;3.08;;;;;;;;;;5074691;28;20042;-67
2022/09/17 14:29:42;;;;;;;11.00;2.80;;;;;;;;;;5075542;28;20033;-68
2022/09/17 14:32:41;;;;;;;12.68;3.03;;;;;;;;;;5075403;28;20491;-67
2022/09/17 14:35:37;;;;;;;9.80;2.45;;;;;;;;;;5075297;28;20072;-67
2022/09/17 14:38:18;;;;;;;12.07;2.40;;;;;;;;;;5074220;28;20044;-70
2022/09/17 14:40:55;;;;;;;14.60;2.65;;;;;;;;;;5072202;28;20480;-66
2022/09/17 14:43:47;;;;;;;8.35;3.00;;;;;;;;;;5074760;28;20043;-65
2022/09/17 14:46:37;;;;;;;11.13;2.97;;;;;;;;;;5074789;28;20052;-65
2022/09/17 14:49:27;;;;;;;11.13;2.75;;;;;;;;;;5074210;28;20281;-66
2022/09/17 14:51:54;;;;;;;9.30;2.90;;;;;;;;;;5074721;28;20047;-66
2022/09/17 14:54:25;;;;;;;12.80;2.67;;;;;;;;;;5074407;28;20020;-65
2022/09/17 14:56:54;;;;;;;10.23;2.80;;;;;;;;;;5074628;28;20070;-65
2022/09/17 14:59:31;;;;;;;10.65;2.78;;;;;;;;;;5074285;28;20479;-67
2022/09/17 15:01:57;;;;;;;9.73;2.30;;;;;;;;;;5073631;28;20090;-66
2022/09/17 15:04:25;;;;;;;15.32;2.42;;;;;;;;;;5074360;28;20029;-65
2022/09/17 15:06:51;;;;;;;9.93;2.40;;;;;;;;;;5074174;28;20433;-66
2022/09/17 15:09:17;;;;;;;6.97;2.22;;;;;;;;;;5073785;28;20111;-68
2022/09/17 15:11:46;;;;;;;8.40;2.35;;;;;;;;;;5073992;28;20028;-67